Time;durP1;ratioP1;P1;durP2;ratioP2;P2;SDS_P1;SDS_P2;PMS_P1;PMS_P2;Temp;Humidity;BMP_temperature;BMP_pressure;BME280_temperature;BME280_humidity;BME280_pressure;Samples;Min_cycle;Max_cycle;Signal;HPM_P1;HPM_P2
2022/03/25 00:01:38;;;;;;;72.47;29.35;;;1.50;99.90;;;;;;5031882;28;20030;-83
2022/03/25 00:04:04;;;;;;;82.22;31.75;;;1.40;99.90;;;;;;5030232;28;20034;-84
2022/03/25 00:06:30;;;;;;;74.03;30.80;;;1.40;99.90;;;;;;5027448;28;20060;-82
2022/03/25 00:08:55;;;;;;;83.32;32.13;;;1.40;99.90;;;;;;5027105;28;20021;-83
2022/03/25 00:11:21;;;;;;;83.60;33.03;;;1.40;99.90;;;;;;5029752;28;20045;-83
2022/03/25 00:13:47;;;;;;;78.05;32.83;;;1.50;99.90;;;;;;5037117;28;20025;-83
2022/03/25 00:16:13;;;;;;;81.78;33.30;;;1.50;99.90;;;;;;5042002;28;20029;-83
2022/03/25 00:18:38;;;;;;;90.50;33.28;;;1.50;99.90;;;;;;5040576;28;20449;-82
2022/03/25 00:21:05;;;;;;;106.10;39.90;;;1.50;99.90;;;;;;5037184;28;20029;-83
2022/03/25 00:23:30;;;;;;;96.68;37.22;;;1.50;99.90;;;;;;5018800;28;20465;-83
2022/03/25 00:25:56;;;;;;;94.55;36.60;;;1.60;99.90;;;;;;5035477;28;20095;-83
2022/03/25 00:28:22;;;;;;;93.90;34.83;;;1.50;99.90;;;;;;5023751;28;20041;-82
2022/03/25 00:30:49;;;;;;;95.53;34.88;;;1.60;99.90;;;;;;5035819;28;20052;-83
2022/03/25 00:33:16;;;;;;;84.50;32.03;;;1.60;99.90;;;;;;5031048;28;20042;-82
2022/03/25 00:35:42;;;;;;;99.78;34.70;;;1.70;99.90;;;;;;5026173;28;20040;-83
2022/03/25 00:38:08;;;;;;;88.32;33.72;;;1.70;99.90;;;;;;5030598;28;20068;-83
2022/03/25 00:40:33;;;;;;;88.55;33.58;;;1.70;99.90;;;;;;5020541;28;20028;-83
2022/03/25 00:42:59;;;;;;;90.80;32.95;;;1.60;99.90;;;;;;5019029;28;20050;-83
2022/03/25 00:45:25;;;;;;;94.47;35.28;;;1.50;99.90;;;;;;5036522;28;20034;-83
2022/03/25 00:47:50;;;;;;;89.10;34.80;;;1.40;99.90;;;;;;5038065;28;20025;-83
2022/03/25 00:50:16;;;;;;;86.50;34.28;;;1.40;99.90;;;;;;5028408;28;20033;-83
2022/03/25 00:52:42;;;;;;;88.53;33.65;;;1.40;99.90;;;;;;5026962;28;20489;-83
2022/03/25 00:55:08;;;;;;;87.55;34.88;;;1.50;99.90;;;;;;5027202;28;20045;-83
2022/03/25 00:57:34;;;;;;;98.80;35.53;;;1.40;99.90;;;;;;5030100;28;20061;-83
2022/03/25 01:00:00;;;;;;;86.47;34.78;;;1.60;99.90;;;;;;5025976;28;20026;-83
2022/03/25 01:02:25;;;;;;;89.88;32.20;;;1.40;99.90;;;;;;5028373;28;20492;-83
2022/03/25 01:04:51;;;;;;;97.45;34.40;;;1.50;99.90;;;;;;5038767;28;20030;-83
2022/03/25 01:07:17;;;;;;;92.85;34.95;;;1.50;99.90;;;;;;5022766;28;20032;-84
2022/03/25 01:09:44;;;;;;;107.88;37.70;;;1.60;99.90;;;;;;5037228;28;20010;-83
2022/03/25 01:12:10;;;;;;;103.70;36.80;;;1.70;99.90;;;;;;5026134;28;20026;-83
2022/03/25 01:14:36;;;;;;;91.30;35.03;;;1.70;99.90;;;;;;5038783;28;20029;-83
2022/03/25 01:17:02;;;;;;;88.50;33.38;;;1.50;99.90;;;;;;5026660;28;20017;-83
2022/03/25 01:19:27;;;;;;;89.32;33.55;;;1.40;99.90;;;;;;5030694;28;20030;-83
2022/03/25 01:21:56;;;;;;;87.43;32.90;;;1.40;99.90;;;;;;5022747;28;20025;-83
2022/03/25 01:24:23;;;;;;;97.82;34.72;;;1.50;99.90;;;;;;5031978;28;20048;-84
2022/03/25 01:26:49;;;;;;;87.35;33.38;;;1.40;99.90;;;;;;5028619;28;20449;-83
2022/03/25 01:29:14;;;;;;;88.57;31.77;;;1.50;99.90;;;;;;5022048;28;20018;-83
2022/03/25 01:31:40;;;;;;;85.97;32.75;;;1.40;99.90;;;;;;5036172;28;20024;-83
2022/03/25 01:34:05;;;;;;;86.25;32.30;;;1.40;99.90;;;;;;5031558;28;20029;-83
2022/03/25 01:36:31;;;;;;;82.05;32.47;;;1.40;99.90;;;;;;5032889;28;20021;-83
2022/03/25 01:38:58;;;;;;;77.20;30.20;;;1.40;99.90;;;;;;5020503;28;20095;-83
2022/03/25 01:41:24;;;;;;;85.18;32.53;;;1.30;99.90;;;;;;5026905;28;20401;-83
2022/03/25 01:43:55;;;;;;;83.53;32.50;;;1.40;99.90;;;;;;5032936;28;20465;-84
2022/03/25 01:46:21;;;;;;;87.07;33.22;;;1.40;99.90;;;;;;5035076;28;20032;-83
2022/03/25 01:48:47;;;;;;;90.65;33.97;;;1.50;99.90;;;;;;5036288;28;20022;-83
2022/03/25 01:51:21;;;;;;;78.97;31.98;;;1.30;99.90;;;;;;5029757;28;20099;-83
2022/03/25 01:53:47;;;;;;;90.40;34.50;;;1.20;99.90;;;;;;5039744;28;20108;-83
2022/03/25 01:56:22;;;;;;;91.03;33.78;;;1.30;99.90;;;;;;5024485;28;20461;-83
2022/03/25 01:58:48;;;;;;;85.70;33.55;;;1.20;99.90;;;;;;5020086;28;20089;-84
2022/03/25 02:01:14;;;;;;;91.97;34.75;;;1.20;99.90;;;;;;5028512;28;20369;-83
2022/03/25 02:03:39;;;;;;;91.45;34.22;;;1.30;99.90;;;;;;5038409;28;20112;-83
2022/03/25 02:06:06;;;;;;;94.00;34.72;;;1.30;99.90;;;;;;5033270;28;20123;-83
2022/03/25 02:08:32;;;;;;;89.30;34.72;;;1.30;99.90;;;;;;5035489;28;20046;-83
2022/03/25 02:10:58;;;;;;;97.15;35.95;;;1.50;99.90;;;;;;5034887;28;20104;-83
2022/03/25 02:13:24;;;;;;;92.35;34.03;;;1.40;99.90;;;;;;5034317;28;20117;-83
2022/03/25 02:15:50;;;;;;;84.93;33.60;;;1.30;99.90;;;;;;5043844;28;20025;-83
2022/03/25 02:18:20;;;;;;;106.28;35.60;;;1.30;99.90;;;;;;5043416;28;20026;-83
2022/03/25 02:20:47;;;;;;;113.97;36.58;;;1.30;99.90;;;;;;5019304;28;20077;-83
2022/03/25 02:23:13;;;;;;;100.40;37.35;;;1.40;99.90;;;;;;5000609;28;20035;-83
2022/03/25 02:25:40;;;;;;;96.85;34.90;;;1.40;99.90;;;;;;5026286;28;20046;-83
2022/03/25 02:28:06;;;;;;;98.00;34.67;;;1.50;99.90;;;;;;5041016;28;20171;-82
2022/03/25 02:30:34;;;;;;;103.22;34.92;;;1.40;99.90;;;;;;5032446;28;20026;-83
2022/03/25 02:33:02;;;;;;;91.97;34.33;;;1.40;99.90;;;;;;5008000;28;20486;-83
2022/03/25 02:35:45;;;;;;;111.85;38.08;;;1.30;99.90;;;;;;5011537;28;20034;-82
2022/03/25 02:38:19;;;;;;;101.18;36.03;;;1.40;99.90;;;;;;5012000;28;20026;-83
2022/03/25 02:40:45;;;;;;;108.68;36.13;;;1.40;99.90;;;;;;5022794;28;20096;-83
2022/03/25 02:43:11;;;;;;;95.35;35.08;;;1.40;99.90;;;;;;5022387;28;20054;-82
2022/03/25 02:45:37;;;;;;;103.50;35.00;;;1.40;99.90;;;;;;5030755;28;20508;-83
2022/03/25 02:48:04;;;;;;;102.03;36.38;;;1.50;99.90;;;;;;5014405;28;20040;-83
2022/03/25 02:50:30;;;;;;;101.88;37.20;;;1.50;99.90;;;;;;5008722;28;20034;-83
2022/03/25 02:52:57;;;;;;;108.25;36.00;;;1.50;99.90;;;;;;5037792;28;20030;-83
2022/03/25 02:55:24;;;;;;;97.68;35.22;;;1.50;99.90;;;;;;5030881;28;20076;-82
2022/03/25 02:57:50;;;;;;;104.65;36.88;;;1.40;99.90;;;;;;5024044;28;20025;-83
2022/03/25 03:00:19;;;;;;;99.97;35.90;;;1.40;99.90;;;;;;5025018;28;20036;-83
2022/03/25 03:02:45;;;;;;;100.80;34.33;;;1.40;99.90;;;;;;5024684;28;20094;-83
2022/03/25 03:05:10;;;;;;;107.40;36.75;;;1.40;99.90;;;;;;5011641;28;20058;-83
2022/03/25 03:07:36;;;;;;;111.90;37.70;;;1.40;99.90;;;;;;5025945;28;20034;-83
2022/03/25 03:10:05;;;;;;;101.45;36.20;;;1.50;99.90;;;;;;5025552;28;20029;-83
2022/03/25 03:12:32;;;;;;;103.95;36.38;;;1.30;99.90;;;;;;5044172;28;20033;-83
2022/03/25 03:14:58;;;;;;;101.80;35.28;;;1.40;99.90;;;;;;5037037;28;20022;-83
2022/03/25 03:17:23;;;;;;;107.30;35.70;;;1.40;99.90;;;;;;5028848;28;20076;-83
2022/03/25 03:19:50;;;;;;;101.15;37.10;;;1.40;99.90;;;;;;5025888;28;20021;-82
2022/03/25 03:22:17;;;;;;;101.85;35.45;;;1.50;99.90;;;;;;5033230;28;20018;-83
2022/03/25 03:24:43;;;;;;;113.47;37.42;;;1.50;99.90;;;;;;5039854;28;20082;-83
2022/03/25 03:27:09;;;;;;;111.55;36.80;;;1.70;99.90;;;;;;5032671;28;20054;-82
2022/03/25 03:29:35;;;;;;;108.22;36.85;;;1.70;1.00;;;;;;5042895;28;20028;-82
2022/03/25 03:32:01;;;;;;;108.68;37.58;;;1.50;1.00;;;;;;5025392;28;20113;-83
2022/03/25 03:34:26;;;;;;;112.90;35.65;;;1.60;1.00;;;;;;5027393;28;20041;-83
2022/03/25 03:36:52;;;;;;;111.00;37.65;;;1.60;1.00;;;;;;5031861;28;20025;-83
2022/03/25 03:39:18;;;;;;;111.10;35.88;;;1.60;1.00;;;;;;5029432;28;20057;-83
2022/03/25 03:41:43;;;;;;;105.00;35.72;;;1.70;1.00;;;;;;5026054;28;20054;-83
2022/03/25 03:44:09;;;;;;;115.47;39.33;;;1.60;1.00;;;;;;5031618;28;20058;-83
2022/03/25 03:46:34;;;;;;;111.82;37.90;;;1.70;1.00;;;;;;5045857;28;20028;-83
2022/03/25 03:49:00;;;;;;;106.95;37.55;;;1.60;1.00;;;;;;5024589;28;20033;-83
2022/03/25 03:51:26;;;;;;;110.90;37.70;;;1.50;1.00;;;;;;5014947;28;20046;-82
2022/03/25 03:53:51;;;;;;;99.53;35.55;;;1.60;1.00;;;;;;5022910;28;20493;-83
2022/03/25 03:56:17;;;;;;;95.38;35.10;;;1.50;1.00;;;;;;5017558;28;20049;-83
2022/03/25 03:58:42;;;;;;;109.07;37.65;;;1.20;1.00;;;;;;5009283;28;20363;-83
2022/03/25 04:01:08;;;;;;;101.40;35.88;;;1.30;1.00;;;;;;5038639;28;20022;-82
2022/03/25 04:03:33;;;;;;;99.90;35.88;;;1.40;1.00;;;;;;5033372;28;20025;-83
2022/03/25 04:06:00;;;;;;;85.93;32.10;;;1.30;1.00;;;;;;5032796;28;20444;-83
2022/03/25 04:08:25;;;;;;;91.15;33.20;;;1.10;1.00;;;;;;5028974;28;20022;-82
2022/03/25 04:10:52;;;;;;;91.93;34.33;;;1.10;1.00;;;;;;5043186;28;20022;-83
2022/03/25 04:13:17;;;;;;;103.10;35.92;;;1.00;1.00;;;;;;5030432;28;20022;-83
2022/03/25 04:15:43;;;;;;;87.22;32.17;;;1.20;1.00;;;;;;5027953;28;20080;-83
2022/03/25 04:18:09;;;;;;;105.13;34.70;;;1.10;1.00;;;;;;5045567;28;20039;-82
2022/03/25 04:20:34;;;;;;;95.32;33.70;;;1.20;1.00;;;;;;5026879;28;20021;-83
2022/03/25 04:23:00;;;;;;;105.45;36.75;;;1.10;1.00;;;;;;5027021;28;20384;-83
2022/03/25 04:25:26;;;;;;;101.00;36.05;;;1.20;1.00;;;;;;5038970;28;20101;-83
2022/03/25 04:27:54;;;;;;;99.43;35.45;;;1.20;1.00;;;;;;5019249;28;20090;-82
2022/03/25 04:30:22;;;;;;;100.05;34.47;;;1.00;1.00;;;;;;5038024;28;20017;-83
2022/03/25 04:32:48;;;;;;;96.97;34.00;;;0.90;1.00;;;;;;5041958;28;20093;-83
2022/03/25 04:35:14;;;;;;;93.07;33.22;;;1.00;1.00;;;;;;5044469;28;20068;-83
2022/03/25 04:37:39;;;;;;;103.47;36.75;;;1.00;1.00;;;;;;5042183;28;20028;-83
2022/03/25 04:40:05;;;;;;;113.88;36.85;;;1.00;1.00;;;;;;5041649;28;20505;-82
2022/03/25 04:42:31;;;;;;;106.30;34.72;;;1.10;1.00;;;;;;5035261;28;20045;-82
2022/03/25 04:44:56;;;;;;;94.78;34.50;;;1.00;1.00;;;;;;5032906;28;20500;-83
2022/03/25 04:47:22;;;;;;;97.30;31.73;;;1.00;1.00;;;;;;5029820;28;20057;-83
2022/03/25 04:49:48;;;;;;;91.68;32.05;;;1.20;1.00;;;;;;5023680;28;20030;-83
2022/03/25 04:52:13;;;;;;;93.28;34.15;;;0.80;1.00;;;;;;5020186;28;20026;-82
2022/03/25 04:54:39;;;;;;;85.70;32.85;;;0.60;1.00;;;;;;5022026;28;20048;-82
2022/03/25 04:57:04;;;;;;;100.00;34.63;;;0.60;1.00;;;;;;5021414;28;20049;-83
2022/03/25 04:59:30;;;;;;;87.60;31.70;;;0.70;1.00;;;;;;5038177;28;20029;-83
2022/03/25 05:01:55;;;;;;;91.80;33.63;;;0.90;1.00;;;;;;5034161;28;20029;-83
2022/03/25 05:04:21;;;;;;;94.38;33.25;;;0.80;1.00;;;;;;5036917;28;20030;-82
2022/03/25 05:06:47;;;;;;;102.70;34.97;;;0.80;1.00;;;;;;5041537;28;20029;-83
2022/03/25 05:09:13;;;;;;;109.57;35.80;;;0.90;1.00;;;;;;5038067;28;20029;-83
2022/03/25 05:11:39;;;;;;;111.65;35.55;;;1.00;1.00;;;;;;5038725;28;20107;-82
2022/03/25 05:14:05;;;;;;;96.40;33.35;;;0.90;1.00;;;;;;5040606;28;20029;-82
2022/03/25 05:16:31;;;;;;;78.43;30.02;;;0.90;55.10;;;;;;5027663;28;20034;-83
2022/03/25 05:18:56;;;;;;;85.78;32.10;;;0.70;1.00;;;;;;5022099;28;20018;-83
2022/03/25 05:21:23;;;;;;;100.45;34.03;;;0.60;99.90;;;;;;5022465;28;20116;-83
2022/03/25 05:23:48;;;;;;;93.13;32.58;;;0.70;99.90;;;;;;5040041;28;20033;-83
2022/03/25 05:26:14;;;;;;;93.57;34.30;;;0.70;99.90;;;;;;5039205;28;20033;-83
2022/03/25 05:28:39;;;;;;;110.15;35.90;;;0.70;99.90;;;;;;5042245;28;20056;-83
2022/03/25 05:31:05;;;;;;;104.22;35.83;;;0.80;99.90;;;;;;5029687;28;20021;-82
2022/03/25 05:33:31;;;;;;;92.93;32.45;;;0.80;1.00;;;;;;5014763;28;20033;-82
2022/03/25 05:35:56;;;;;;;85.32;32.83;;;0.80;1.00;;;;;;5017197;28;20033;-82
2022/03/25 05:38:22;;;;;;;92.43;32.70;;;0.60;1.00;;;;;;5022365;28;20002;-83
2022/03/25 05:40:48;;;;;;;88.95;32.88;;;0.70;99.90;;;;;;5040695;28;20112;-83
2022/03/25 05:43:14;;;;;;;90.88;33.05;;;0.70;99.90;;;;;;5045918;28;20056;-83
2022/03/25 05:45:40;;;;;;;99.47;34.05;;;0.80;1.00;;;;;;5039339;28;20041;-83
2022/03/25 05:48:05;;;;;;;86.70;31.70;;;0.90;1.00;;;;;;5038247;28;20080;-83
2022/03/25 05:50:31;;;;;;;97.60;31.67;;;0.90;1.00;;;;;;5042288;28;20069;-83
2022/03/25 05:52:56;;;;;;;87.93;32.75;;;1.10;1.00;;;;;;5036485;28;20094;-83
2022/03/25 05:55:22;;;;;;;121.40;37.97;;;1.20;1.00;;;;;;5031830;28;20018;-82
2022/03/25 05:57:48;;;;;;;117.38;34.78;;;1.30;1.00;;;;;;5036107;28;20048;-82
2022/03/25 06:00:14;;;;;;;99.72;33.17;;;1.60;1.00;;;;;;5024742;28;20033;-81
2022/03/25 06:02:42;;;;;;;115.82;35.72;;;1.60;1.00;;;;;;5013706;28;20045;-82
2022/03/25 06:05:08;;;;;;;129.02;37.20;;;1.90;1.00;;;;;;5014016;28;20030;-82
2022/03/25 06:07:42;;;;;;;114.95;34.88;;;2.10;1.00;;;;;;5012575;28;20026;-82
2022/03/25 06:10:09;;;;;;;107.97;31.88;;;2.20;1.00;;;;;;5013791;28;20022;-81
2022/03/25 06:12:35;;;;;;;110.95;31.02;;;2.30;1.00;;;;;;5012689;28;20389;-82
2022/03/25 06:15:01;;;;;;;112.22;32.00;;;2.50;1.00;;;;;;5012445;28;20026;-82
2022/03/25 06:17:27;;;;;;;93.68;29.75;;;2.60;1.00;;;;;;5013499;28;20033;-83
2022/03/25 06:19:53;;;;;;;84.70;27.70;;;2.80;1.00;;;;;;5013626;28;20029;-81
2022/03/25 06:22:18;;;;;;;104.63;32.70;;;3.00;1.00;;;;;;5013901;28;20030;-83
2022/03/25 06:24:44;;;;;;;121.18;35.83;;;3.30;1.00;;;;;;5013651;28;20036;-82
2022/03/25 06:27:10;;;;;;;111.55;35.00;;;3.50;1.00;;;;;;5013543;28;20025;-82
2022/03/25 06:29:37;;;;;;;113.38;34.65;;;3.70;1.00;;;;;;5013511;28;20029;-82
2022/03/25 06:32:05;;;;;;;108.63;32.45;;;4.00;1.00;;;;;;5013855;28;20014;-81
2022/03/25 06:34:30;;;;;;;90.25;31.55;;;4.10;1.00;;;;;;5012767;28;20054;-82
2022/03/25 06:36:56;;;;;;;92.47;30.40;;;4.20;1.00;;;;;;5013431;28;20756;-83
2022/03/25 06:39:22;;;;;;;70.25;26.85;;;4.50;1.00;;;;;;5017815;28;20144;-82
2022/03/25 06:41:47;;;;;;;89.53;29.45;;;4.50;1.00;;;;;;5017488;28;20378;-82
2022/03/25 06:44:13;;;;;;;69.15;27.30;;;4.70;1.00;;;;;;5017009;28;20087;-83
2022/03/25 06:46:38;;;;;;;77.13;30.63;;;4.80;1.00;;;;;;5016595;28;20039;-81
2022/03/25 06:49:05;;;;;;;79.32;29.15;;;4.90;1.00;;;;;;5024035;28;20025;-82
2022/03/25 06:51:31;;;;;;;75.75;29.55;;;5.00;1.00;;;;;;5019496;28;20030;-82
2022/03/25 06:53:57;;;;;;;71.88;30.35;;;5.20;1.00;;;;;;5017588;28;20026;-82
2022/03/25 06:56:23;;;;;;;75.43;29.90;;;5.30;1.00;;;;;;5017570;28;20111;-81
2022/03/25 06:58:48;;;;;;;74.38;30.88;;;5.40;1.00;;;;;;5030834;28;20034;-82
2022/03/25 07:01:15;;;;;;;72.22;29.17;;;5.40;1.00;;;;;;5038999;28;20021;-82
2022/03/25 07:03:41;;;;;;;78.28;30.65;;;5.60;1.00;;;;;;5019547;28;20049;-83
2022/03/25 07:06:09;;;;;;;84.30;31.73;;;5.70;99.90;;;;;;5017851;28;20038;-82
2022/03/25 07:08:35;;;;;;;83.47;33.40;;;6.10;99.90;;;;;;5023541;28;20022;-83
2022/03/25 07:11:01;;;;;;;94.15;35.90;;;6.90;99.90;;;;;;5018437;28;20097;-82
2022/03/25 07:13:27;;;;;;;106.57;37.33;;;9.80;99.90;;;;;;5016590;28;20470;-83
2022/03/25 07:15:54;;;;;;;90.68;36.80;;;11.80;99.90;;;;;;5018862;28;20092;-83
2022/03/25 07:18:20;;;;;;;86.50;34.58;;;12.00;99.90;;;;;;5020342;28;20022;-82
2022/03/25 07:20:45;;;;;;;80.47;32.08;;;12.80;2.50;;;;;;5019319;28;20034;-83
2022/03/25 07:23:11;;;;;;;85.03;34.20;;;14.40;1.00;;;;;;5021448;28;20030;-83
2022/03/25 07:25:37;;;;;;;72.30;31.33;;;16.40;99.90;;;;;;5022424;28;20944;-82
2022/03/25 07:28:03;;;;;;;76.28;34.58;;;16.50;99.90;;;;;;5021526;28;20018;-82
2022/03/25 07:30:28;;;;;;;74.63;31.42;;;17.60;99.90;;;;;;5036480;28;20116;-82
2022/03/25 07:32:54;;;;;;;68.03;30.05;;;18.10;99.90;;;;;;5013419;28;20056;-82
2022/03/25 07:35:19;;;;;;;61.28;29.45;;;18.60;99.90;;;;;;5021879;28;20034;-82
2022/03/25 07:37:45;;;;;;;65.43;29.67;;;18.90;99.90;;;;;;5019865;28;20026;-81
2022/03/25 07:40:13;;;;;;;63.83;29.98;;;20.40;99.90;;;;;;5029701;28;20029;-82
2022/03/25 07:42:40;;;;;;;63.22;30.15;;;19.70;99.90;;;;;;5029832;28;20441;-82
2022/03/25 07:45:11;;;;;;;47.20;18.35;;;21.00;99.90;;;;;;5026698;28;20049;-83
2022/03/25 07:47:44;;;;;;;58.22;27.35;;;20.90;99.90;;;;;;5016766;28;20161;-82
2022/03/25 07:50:12;;;;;;;51.33;24.80;;;20.60;99.90;;;;;;5015452;28;20402;-82
2022/03/25 07:52:37;;;;;;;55.00;27.77;;;20.60;99.90;;;;;;5016424;28;20034;-82
2022/03/25 07:55:04;;;;;;;53.25;23.95;;;20.80;99.90;;;;;;5024220;28;20032;-87
2022/03/25 07:57:30;;;;;;;52.28;25.17;;;21.20;99.90;;;;;;5039367;28;20038;-86
2022/03/25 07:59:55;;;;;;;51.17;25.38;;;23.00;99.90;;;;;;5015161;28;20077;-85
2022/03/25 08:02:21;;;;;;;42.63;22.67;;;22.50;99.90;;;;;;5015839;28;20104;-86
2022/03/25 08:04:47;;;;;;;52.15;26.95;;;21.90;99.90;;;;;;5015926;28;20029;-85
2022/03/25 08:07:12;;;;;;;52.17;26.83;;;21.80;99.90;;;;;;5016008;28;20139;-86
2022/03/25 08:09:38;;;;;;;48.63;22.20;;;23.40;99.90;;;;;;5014619;28;20101;-85
2022/03/25 08:12:05;;;;;;;43.80;22.58;;;24.90;99.90;;;;;;5015455;28;20041;-86
2022/03/25 08:14:30;;;;;;;47.22;23.65;;;24.00;99.90;;;;;;5019654;28;20026;-89
2022/03/25 08:16:56;;;;;;;45.22;24.52;;;24.70;99.90;;;;;;5020618;28;20029;-87
2022/03/25 08:19:21;;;;;;;42.95;23.33;;;25.90;99.90;;;;;;5023310;28;20118;-87
2022/03/25 08:21:47;;;;;;;44.92;21.27;;;26.40;99.90;;;;;;5015685;28;20030;-87
2022/03/25 08:29:41;;;;;;;37.55;19.50;;;23.70;99.90;;;;;;5017295;28;21243;-84
2022/03/25 08:32:07;;;;;;;35.95;19.90;;;23.80;99.90;;;;;;5028045;28;20040;-85
2022/03/25 08:34:32;;;;;;;37.70;18.02;;;23.10;99.90;;;;;;5005860;28;20080;-84
2022/03/25 08:36:58;;;;;;;38.15;19.63;;;23.50;99.90;;;;;;5025384;28;20030;-86
2022/03/25 08:39:24;;;;;;;32.15;19.60;;;23.10;99.90;;;;;;5022642;28;20109;-85
2022/03/25 08:41:49;;;;;;;34.05;18.58;;;23.60;99.90;;;;;;5029335;28;20034;-86
2022/03/25 08:44:15;;;;;;;38.13;21.25;;;24.60;99.90;;;;;;5025333;28;20464;-85
2022/03/25 08:46:41;;;;;;;35.00;20.05;;;24.20;99.90;;;;;;5020331;28;20026;-85
2022/03/25 08:49:07;;;;;;;37.92;21.33;;;24.70;99.90;;;;;;5033996;28;20006;-85
2022/03/25 08:51:33;;;;;;;39.45;21.25;;;25.30;99.90;;;;;;5039193;28;20022;-85
2022/03/25 08:53:58;;;;;;;35.03;18.85;;;25.00;99.90;;;;;;5028339;28;20064;-85
2022/03/25 08:56:25;;;;;;;31.58;17.02;;;26.10;99.90;;;;;;5024590;28;20049;-86
2022/03/25 08:58:54;;;;;;;31.08;16.77;;;28.00;99.90;;;;;;5020847;28;20038;-86
2022/03/25 09:01:20;;;;;;;33.67;18.48;;;26.80;99.90;;;;;;5018798;28;20053;-84
2022/03/25 09:03:45;;;;;;;34.20;17.25;;;27.30;99.90;;;;;;5023743;28;20064;-84
2022/03/25 09:06:11;;;;;;;33.05;16.90;;;27.10;99.90;;;;;;5019697;28;20029;-83
2022/03/25 09:08:36;;;;;;;30.08;17.80;;;27.40;99.90;;;;;;5017652;28;20030;-84
2022/03/25 09:11:03;;;;;;;29.45;16.30;;;26.80;99.90;;;;;;5019981;28;20029;-84
2022/03/25 09:13:29;;;;;;;30.25;17.02;;;26.30;99.90;;;;;;5002616;28;20048;-84
2022/03/25 09:15:54;;;;;;;29.63;16.27;;;27.70;99.90;;;;;;5018380;28;20502;-84
2022/03/25 09:18:20;;;;;;;25.05;14.23;;;27.40;99.90;;;;;;5019236;28;20091;-83
2022/03/25 09:20:46;;;;;;;30.45;16.70;;;27.40;99.90;;;;;;5011502;28;20025;-83
2022/03/25 09:23:13;;;;;;;27.08;13.32;;;27.90;99.90;;;;;;5013069;28;20116;-84
2022/03/25 09:25:39;;;;;;;27.27;16.45;;;27.30;99.90;;;;;;5014795;28;20037;-83
2022/03/25 09:28:05;;;;;;;25.63;14.02;;;28.20;99.90;;;;;;5015574;28;20408;-84
2022/03/25 09:30:31;;;;;;;27.45;15.98;;;27.40;99.90;;;;;;4997289;28;20560;-84
2022/03/25 09:32:56;;;;;;;27.08;15.57;;;28.60;99.90;;;;;;5013256;28;20118;-84
2022/03/25 09:35:22;;;;;;;25.25;13.82;;;29.00;99.90;;;;;;5014659;28;20029;-84
2022/03/25 09:37:50;;;;;;;24.33;14.02;;;28.40;99.90;;;;;;4994103;28;20378;-84
2022/03/25 09:40:25;;;;;;;28.77;16.33;;;28.10;99.90;;;;;;4995022;28;20029;-84
2022/03/25 09:42:52;;;;;;;27.92;16.88;;;27.80;99.90;;;;;;4994865;28;20036;-85
2022/03/25 09:45:19;;;;;;;29.40;16.58;;;28.50;99.90;;;;;;4995166;28;20485;-85
2022/03/25 09:47:47;;;;;;;27.52;16.88;;;28.10;99.90;;;;;;4995074;28;20026;-84
2022/03/25 09:50:16;;;;;;;25.00;14.13;;;27.50;99.90;;;;;;5016331;28;20022;-81
2022/03/25 09:52:45;;;;;;;25.73;15.93;;;26.80;99.90;;;;;;5015630;28;20021;-81
2022/03/25 09:55:13;;;;;;;27.40;16.23;;;26.30;99.90;;;;;;4996464;28;20046;-82
2022/03/25 09:57:39;;;;;;;28.52;14.98;;;27.80;99.90;;;;;;5000019;28;20022;-80
2022/03/25 10:00:07;;;;;;;26.50;13.77;;;29.60;99.90;;;;;;5003477;28;20034;-82
2022/03/25 10:02:33;;;;;;;26.40;14.68;;;29.10;99.90;;;;;;5027773;28;20061;-82
2022/03/25 10:04:58;;;;;;;28.40;16.80;;;28.00;99.90;;;;;;5039861;28;20040;-78
2022/03/25 10:07:27;;;;;;;29.55;13.60;;;28.30;99.90;;;;;;5026413;28;20026;-79
2022/03/25 10:10:20;;;;;;;28.13;14.55;;;28.10;99.90;;;;;;5016689;28;20600;-80
2022/03/25 10:13:03;;;;;;;24.58;13.25;;;27.20;99.90;;;;;;5022793;28;20022;-80
2022/03/25 10:15:32;;;;;;;26.80;14.55;;;25.90;99.90;;;;;;5012369;28;20038;-80
2022/03/25 10:17:59;;;;;;;26.42;14.07;;;26.70;99.90;;;;;;5028594;28;20082;-80
2022/03/25 10:20:33;;;;;;;29.73;15.50;;;27.80;99.90;;;;;;5032427;28;20105;-81
2022/03/25 10:23:04;;;;;;;25.90;14.85;;;27.80;99.90;;;;;;5033235;28;20038;-81
2022/03/25 10:25:35;;;;;;;29.80;15.68;;;28.60;99.90;;;;;;5031011;28;20372;-80
2022/03/25 10:28:02;;;;;;;29.05;17.05;;;28.00;99.90;;;;;;5036328;28;20038;-80
2022/03/25 10:30:35;;;;;;;31.95;17.17;;;29.70;99.90;;;;;;5021084;28;20077;-80
2022/03/25 10:33:30;;;;;;;23.30;12.43;;;30.70;99.90;;;;;;5018453;28;20439;-81
2022/03/25 10:36:09;;;;;;;27.75;16.30;;;27.20;99.90;;;;;;5017658;28;20406;-80
2022/03/25 10:38:48;;;;;;;24.52;13.93;;;27.50;99.90;;;;;;4999125;28;20030;-80
2022/03/25 10:41:24;;;;;;;30.73;16.15;;;26.10;99.90;;;;;;5017708;28;20028;-80
2022/03/25 10:43:59;;;;;;;26.27;15.38;;;25.60;99.90;;;;;;5025458;28;20058;-80
2022/03/25 10:46:39;;;;;;;27.55;13.10;;;25.80;99.90;;;;;;5018875;28;20021;-80
2022/03/25 10:49:11;;;;;;;25.13;12.38;;;23.80;99.90;;;;;;5033566;28;20033;-79
2022/03/25 10:51:39;;;;;;;29.17;15.93;;;23.50;99.90;;;;;;5026218;28;20056;-80
2022/03/25 10:54:10;;;;;;;27.40;16.08;;;22.20;99.90;;;;;;5041597;28;20618;-81
2022/03/25 10:56:46;;;;;;;25.20;13.43;;;20.40;99.90;;;;;;5003430;28;20453;-78
2022/03/25 10:59:24;;;;;;;30.25;16.38;;;20.60;99.90;;;;;;5013616;28;20029;-81
2022/03/25 11:01:51;;;;;;;28.52;14.85;;;18.90;99.90;;;;;;5017379;28;20026;-81
2022/03/25 11:04:17;;;;;;;24.92;12.82;;;18.40;99.90;;;;;;5027324;28;20289;-81
2022/03/25 11:06:45;;;;;;;24.10;13.68;;;18.40;99.90;;;;;;5023125;28;20543;-80
2022/03/25 11:09:15;;;;;;;28.95;11.77;;;17.40;99.90;;;;;;5027643;28;20022;-81
2022/03/25 11:11:42;;;;;;;;;;;17.40;99.90;;;;;;5030941;28;20070;-81
2022/03/25 11:14:08;;;;;;;19.30;10.98;;;17.70;99.90;;;;;;5039999;28;19909;-81
2022/03/25 11:16:38;;;;;;;28.08;15.82;;;16.90;99.90;;;;;;5025371;28;20026;-81
2022/03/25 11:19:07;;;;;;;24.13;12.80;;;16.80;99.90;;;;;;5031677;28;20058;-82
2022/03/25 11:21:38;;;;;;;24.35;15.00;;;16.70;99.90;;;;;;5023035;28;20018;-80
2022/03/25 11:24:07;;;;;;;25.67;13.27;;;16.50;99.90;;;;;;5025303;28;20048;-80
2022/03/25 11:26:38;;;;;;;21.35;12.13;;;16.60;99.90;;;;;;5023681;28;20065;-80
2022/03/25 11:29:09;;;;;;;21.13;11.55;;;16.40;99.90;;;;;;5029854;28;20073;-80
2022/03/25 11:32:03;;;;;;;26.10;10.95;;;16.60;99.90;;;;;;5039734;28;20034;-80
2022/03/25 11:34:29;;;;;;;25.98;14.15;;;16.30;99.90;;;;;;5030873;28;20034;-80
2022/03/25 11:37:16;;;;;;;22.30;11.32;;;16.30;99.90;;;;;;5035782;28;20499;-80
2022/03/25 11:39:41;;;;;;;26.13;14.90;;;16.20;99.90;;;;;;5023009;28;20034;-80
2022/03/25 11:42:38;;;;;;;26.65;14.70;;;16.00;99.90;;;;;;5010588;28;20547;-79
2022/03/25 11:45:31;;;;;;;26.95;13.52;;;16.20;99.90;;;;;;5013968;28;20069;-79
2022/03/25 11:47:59;;;;;;;22.48;14.25;;;16.60;99.90;;;;;;5021738;28;20061;-80
2022/03/25 11:50:28;;;;;;;26.27;14.45;;;16.50;99.90;;;;;;5036345;28;20057;-81
2022/03/25 11:52:53;;;;;;;21.00;11.02;;;16.70;99.90;;;;;;5040442;28;20113;-81
2022/03/25 11:55:19;;;;;;;25.20;13.45;;;16.40;99.90;;;;;;5045554;28;20083;-80
2022/03/25 11:57:46;;;;;;;26.45;13.40;;;16.10;99.90;;;;;;5038882;28;20037;-79
2022/03/25 12:00:31;;;;;;;22.85;13.38;;;16.10;99.90;;;;;;5041040;28;20014;-80
2022/03/25 12:03:01;;;;;;;23.88;11.77;;;16.20;99.90;;;;;;5037392;28;20056;-79
2022/03/25 12:05:29;;;;;;;17.95;9.25;;;16.30;99.90;;;;;;5028549;28;20034;-80
2022/03/25 12:08:32;;;;;;;23.00;10.52;;;16.00;99.90;;;;;;5032729;28;20025;-80
2022/03/25 12:11:00;;;;;;;25.70;12.38;;;16.10;99.90;;;;;;5040451;28;20114;-81
2022/03/25 12:13:50;;;;;;;26.85;13.93;;;16.20;99.90;;;;;;5030036;28;20018;-80
2022/03/25 12:16:34;;;;;;;;;;;16.20;99.90;;;;;;5020581;28;20027;-81
2022/03/25 12:19:00;;;;;;;18.10;9.60;;;16.10;99.90;;;;;;5032087;28;19985;-82
2022/03/25 12:21:25;;;;;;;24.65;14.80;;;15.90;99.90;;;;;;5029564;28;20026;-81
2022/03/25 12:23:58;;;;;;;22.30;10.77;;;15.70;99.90;;;;;;5029817;28;20425;-82
2022/03/25 12:26:35;;;;;;;22.63;11.10;;;15.70;99.90;;;;;;5032981;28;20049;-81
2022/03/25 12:29:03;;;;;;;28.88;14.05;;;16.00;99.90;;;;;;5028682;28;20037;-81
2022/03/25 12:31:29;;;;;;;26.80;12.23;;;15.90;99.90;;;;;;5018052;28;20026;-81
2022/03/25 12:34:03;;;;;;;25.60;13.25;;;16.10;99.90;;;;;;5022382;28;20089;-82
2022/03/25 12:36:40;;;;;;;29.20;15.10;;;16.00;99.90;;;;;;5009723;28;20176;-81
2022/03/25 12:39:11;;;;;;;32.05;15.73;;;16.00;99.90;;;;;;5015850;28;20026;-81
2022/03/25 12:41:38;;;;;;;31.15;15.68;;;16.00;99.90;;;;;;5025023;28;20199;-81